createdAt,value
2023-08-07T00:02:55.797Z,99594.16
2023-08-07T00:05:57.362Z,99594.16
2023-08-07T00:08:58.899Z,99602.34
2023-08-07T00:12:00.543Z,99603.41
2023-08-07T00:15:03.489Z,99606.97
2023-08-07T00:18:05.224Z,99611.38
2023-08-07T00:21:06.768Z,99609.72
2023-08-07T00:24:08.332Z,99611.59
2023-08-07T00:27:11.611Z,99615.38
2023-08-07T00:30:13.171Z,99612.88
2023-08-07T00:33:14.701Z,99612.00
2023-08-07T00:36:17.487Z,99616.63
2023-08-07T00:39:19.052Z,99625.91
2023-08-07T00:42:20.681Z,99626.53
2023-08-07T00:45:22.382Z,99624.19
2023-08-07T00:48:24.057Z,99623.38
2023-08-07T00:51:25.652Z,99627.16
2023-08-07T00:54:27.437Z,99620.63
2023-08-07T00:57:29.224Z,99616.22
2023-08-07T01:00:31.534Z,99631.78
2023-08-07T01:03:33.411Z,99626.53
2023-08-07T01:06:35.623Z,99630.31
2023-08-07T01:09:37.286Z,99643.13
2023-08-07T01:12:49.449Z,99638.53
2023-08-07T01:15:56.755Z,99634.09
2023-08-07T01:19:01.850Z,99628.84
2023-08-07T01:22:07.300Z,99633.44
2023-08-07T01:25:10.124Z,99637.25
2023-08-07T01:28:25.514Z,99633.44
2023-08-07T01:31:32.797Z,99630.94
2023-08-07T01:34:37.472Z,99626.75
2023-08-07T01:37:42.212Z,99622.13
2023-08-07T01:40:45.151Z,99619.56
2023-08-07T01:43:47.192Z,99621.47
2023-08-07T01:46:48.856Z,99621.72
2023-08-07T01:49:50.442Z,99630.09
2023-08-07T01:52:52.594Z,99628.19
2023-08-07T01:55:54.211Z,99624.63
2023-08-07T01:58:55.803Z,99633.03
2023-08-07T02:01:57.439Z,99627.56
2023-08-07T02:04:59.214Z,99634.09
2023-08-07T02:08:00.886Z,99625.25
2023-08-07T02:11:03.821Z,99631.34
2023-08-07T02:14:05.430Z,99624.22
2023-08-07T02:17:07.037Z,99620.63
2023-08-07T02:20:09.302Z,99614.31
2023-08-07T02:23:10.839Z,99622.72
2023-08-07T02:26:12.402Z,99614.72
2023-08-07T02:29:13.985Z,99620.19
2023-08-07T02:32:15.570Z,99618.28
2023-08-07T02:35:17.287Z,99617.44
2023-08-07T02:38:19.065Z,99610.31
2023-08-07T02:41:21.506Z,99606.72
2023-08-07T02:44:23.076Z,99613.88
2023-08-07T02:47:24.727Z,99605.06
2023-08-07T02:50:28.583Z,99591.41
2023-08-07T02:53:30.200Z,99606.94
2023-08-07T02:56:31.866Z,99606.94
2023-08-07T02:59:33.445Z,99613.44
2023-08-07T03:02:35.117Z,99611.78
2023-08-07T03:05:36.677Z,99612.59
2023-08-07T03:08:38.270Z,99619.13
2023-08-07T03:11:39.804Z,99615.56
2023-08-07T03:14:41.433Z,99615.78
2023-08-07T03:17:43.305Z,99622.91
2023-08-07T03:20:45.443Z,99612.19
2023-08-07T03:23:47.141Z,99614.94
2023-08-07T03:26:50.178Z,99615.97
2023-08-07T03:29:52.049Z,99625.03
2023-08-07T03:32:54.824Z,99631.50
2023-08-07T03:35:56.968Z,99629.84
2023-08-07T03:38:58.982Z,99635.31
2023-08-07T03:42:00.754Z,99627.13
2023-08-07T03:45:02.435Z,99636.34
2023-08-07T03:48:04.206Z,99635.50
2023-08-07T03:51:09.115Z,99636.34
2023-08-07T03:54:15.057Z,99643.69
2023-08-07T03:57:16.644Z,99640.13
2023-08-07T04:00:18.436Z,99645.59
2023-08-07T04:03:21.331Z,99642.88
2023-08-07T04:06:23.050Z,99640.31
2023-08-07T04:09:24.917Z,99639.50
2023-08-07T04:12:26.531Z,99642.22
2023-08-07T04:15:28.183Z,99640.56
2023-08-07T04:18:30.127Z,99646.00
2023-08-07T04:21:31.926Z,99640.56
2023-08-07T04:24:33.553Z,99654.41
2023-08-07T04:27:35.089Z,99652.72
2023-08-07T04:30:36.664Z,99659.22
2023-08-07T04:33:38.274Z,99656.50
2023-08-07T04:36:39.824Z,99654.81
2023-08-07T04:39:41.407Z,99663.84
2023-08-07T04:42:42.973Z,99666.59
2023-08-07T04:45:46.304Z,99663.84
2023-08-07T04:48:49.458Z,99674.59
2023-08-07T04:51:51.028Z,99672.28
2023-08-07T04:54:52.615Z,99674.78
2023-08-07T04:57:55.583Z,99679.41
2023-08-07T05:00:58.108Z,99668.66
2023-08-07T05:04:00.320Z,99690.31
2023-08-07T05:07:02.078Z,99687.59
2023-08-07T05:10:04.066Z,99682.13
2023-08-07T05:13:05.645Z,99679.59
2023-08-07T05:16:07.338Z,99680.25
2023-08-07T05:19:09.126Z,99674.78
2023-08-07T05:22:10.713Z,99683.81
2023-08-07T05:25:16.642Z,99692.00
2023-08-07T05:28:18.282Z,99697.25
2023-08-07T05:31:19.953Z,99693.69
2023-08-07T05:34:21.908Z,99696.44
2023-08-07T05:37:23.493Z,99700.81
2023-08-07T05:40:25.032Z,99708.00
2023-08-07T05:43:26.575Z,99706.28
2023-08-07T05:46:28.242Z,99709.84
2023-08-07T05:49:29.783Z,99708.00
2023-08-07T05:52:31.338Z,99708.00
2023-08-07T05:55:32.983Z,99714.28
2023-08-07T05:58:34.545Z,99709.66
2023-08-07T06:01:37.998Z,99712.41
2023-08-07T06:04:39.946Z,99714.06
2023-08-07T06:07:41.550Z,99715.97
2023-08-07T06:10:43.094Z,99712.41
2023-08-07T06:13:44.696Z,99720.59
2023-08-07T06:16:46.645Z,99719.53
2023-08-07T06:19:48.313Z,99724.16
2023-08-07T06:22:49.868Z,99730.44
2023-08-07T06:25:55.422Z,99730.44
2023-08-07T06:28:59.278Z,99727.72
2023-08-07T06:32:01.118Z,99725.00
2023-08-07T06:35:03.690Z,99728.59
2023-08-07T06:38:05.583Z,99723.97
2023-08-07T06:41:07.220Z,99733.00
2023-08-07T06:44:08.852Z,99730.25
2023-08-07T06:47:11.172Z,99732.16
2023-08-07T06:50:14.945Z,99729.41
2023-08-07T06:53:17.008Z,99733.00
2023-08-07T06:56:19.047Z,99730.25
2023-08-07T06:59:20.626Z,99733.81
2023-08-07T07:02:22.352Z,99729.41
2023-08-07T07:05:23.961Z,99731.31
2023-08-07T07:08:25.583Z,99735.72
2023-08-07T07:11:27.159Z,99734.06
2023-08-07T07:14:28.716Z,99739.28
2023-08-07T07:17:30.326Z,99742.00
2023-08-07T07:20:32.227Z,99742.84
2023-08-07T07:23:33.755Z,99736.56
2023-08-07T07:26:35.323Z,99740.13
2023-08-07T07:29:36.943Z,99744.75
2023-08-07T07:32:38.569Z,99747.47
2023-08-07T07:35:40.359Z,99755.69
2023-08-07T07:38:43.123Z,99771.03
2023-08-07T07:41:45.829Z,99765.75
2023-08-07T07:44:47.407Z,99781.09
2023-08-07T07:47:49.019Z,99774.78
2023-08-07T07:50:50.572Z,99761.13
2023-08-07T07:54:11.954Z,99775.63
2023-08-07T07:57:13.844Z,99778.59
2023-08-07T08:00:15.810Z,99774.78
2023-08-07T08:03:17.470Z,99773.97
2023-08-07T08:06:19.298Z,99777.53
2023-08-07T08:09:20.843Z,99779.41
2023-08-07T08:12:22.993Z,99781.31
2023-08-07T08:15:25.472Z,99789.50
2023-08-07T08:18:27.234Z,99792.44
2023-08-07T08:21:29.051Z,99804.19
2023-08-07T08:24:32.551Z,99805.25
2023-08-07T08:27:34.125Z,99807.97
2023-08-07T08:30:35.799Z,99802.31
2023-08-07T08:33:37.412Z,99816.59
2023-08-07T08:36:39.006Z,99812.19
2023-08-07T08:39:40.595Z,99824.19
2023-08-07T08:42:42.588Z,99820.56
2023-08-07T08:45:45.147Z,99822.28
2023-08-07T08:48:57.500Z,99823.13
2023-08-07T08:52:00.061Z,99824.19
2023-08-07T08:55:02.700Z,99828.78
2023-08-07T08:58:05.121Z,99826.03
2023-08-07T09:01:07.961Z,99823.91
2023-08-07T09:04:11.157Z,99828.06
2023-08-07T09:07:20.982Z,99836.88
2023-08-07T09:10:24.378Z,99846.91
2023-08-07T09:13:29.308Z,99846.69
2023-08-07T09:16:32.303Z,99843.06
2023-08-07T09:19:34.233Z,99861.09
2023-08-07T09:22:36.210Z,99869.41
2023-08-07T09:25:37.852Z,99862.03
2023-08-07T09:28:39.737Z,99855.25
2023-08-07T09:31:46.481Z,99856.31
2023-08-07T09:34:49.947Z,99855.84
2023-08-07T09:37:52.002Z,99845.31
2023-08-07T09:40:53.561Z,99842.97
2023-08-07T09:43:55.224Z,99850.31
2023-08-07T09:46:58.096Z,99851.16
2023-08-07T09:49:59.924Z,99857.69
2023-08-07T09:53:01.660Z,99854.72
2023-08-07T09:56:03.993Z,99858.50
2023-08-07T09:59:05.868Z,99882.22
2023-08-07T10:02:07.627Z,99889.56
2023-08-07T10:05:11.495Z,99900.75
2023-08-07T10:08:13.346Z,99892.34
2023-08-07T10:11:18.347Z,99892.84
2023-08-07T10:14:20.073Z,99893.28
2023-08-07T10:17:24.857Z,99895.41
2023-08-07T10:20:29.241Z,99881.56
2023-08-07T10:23:31.901Z,99880.31
2023-08-07T10:26:35.507Z,99894.22
2023-08-07T10:29:38.837Z,99894.84
2023-08-07T10:32:41.550Z,99902.88
2023-08-07T10:35:49.029Z,99907.91
2023-08-07T10:38:54.561Z,99910.66
2023-08-07T10:41:56.656Z,99912.31
2023-08-07T10:45:02.461Z,99913.81
2023-08-07T10:48:08.603Z,99910.91
2023-08-07T10:51:13.382Z,99924.34
2023-08-07T10:54:15.039Z,99911.72
2023-08-07T10:57:18.527Z,99918.91
2023-08-07T11:00:27.987Z,99911.31
2023-08-07T11:03:29.720Z,99911.53
2023-08-07T11:06:34.526Z,99922.25
2023-08-07T11:09:36.529Z,99903.34
2023-08-07T11:12:38.853Z,99905.03
2023-08-07T11:15:40.484Z,99915.09
2023-08-07T11:18:43.342Z,99911.31
2023-08-07T11:21:45.713Z,99904.19
2023-08-07T11:24:47.994Z,99919.50
2023-08-07T11:27:49.559Z,99898.72
2023-08-07T11:30:54.195Z,99896.66
2023-08-07T11:34:03.505Z,99908.59
2023-08-07T11:37:05.101Z,99914.28
2023-08-07T11:40:07.572Z,99898.53
2023-08-07T11:43:10.708Z,99911.31
2023-08-07T11:46:15.146Z,99891.19
2023-08-07T11:49:16.822Z,99914.06
2023-08-07T11:52:18.643Z,99917.66
2023-08-07T11:55:20.268Z,99924.13
2023-08-07T11:58:22.994Z,99933.63
2023-08-07T12:01:27.161Z,99934.06
2023-08-07T12:04:32.655Z,99936.19
2023-08-07T12:07:34.269Z,99938.75
2023-08-07T12:10:36.580Z,99936.00
2023-08-07T12:13:43.395Z,99939.41
2023-08-07T12:16:48.979Z,99937.69
2023-08-07T12:19:52.111Z,99944.84
2023-08-07T12:22:53.871Z,99950.50
2023-08-07T12:25:56.180Z,99970.69
2023-08-07T12:28:58.227Z,99981.78
2023-08-07T12:32:04.272Z,100009.47
2023-08-07T12:38:15.721Z,100007.13
2023-08-07T12:44:21.891Z,100010.25
2023-08-07T12:47:23.469Z,100011.31
2023-08-07T12:50:25.144Z,100016.75
2023-08-07T12:53:27.029Z,100006.88
2023-08-07T12:56:29.075Z,100006.03
2023-08-07T12:59:30.739Z,100017.16
2023-08-07T13:02:32.371Z,100008.97
2023-08-07T13:05:34.788Z,100014.44
2023-08-07T13:08:38.665Z,100007.28
2023-08-07T13:11:40.758Z,100011.88
2023-08-07T13:14:42.301Z,100017.53
2023-08-07T13:17:45.042Z,100029.31
2023-08-07T13:20:46.788Z,100028.44
2023-08-07T13:23:48.251Z,100032.22
2023-08-07T13:26:49.757Z,100034.13
2023-08-07T13:29:51.275Z,100036.00
2023-08-07T13:32:52.775Z,100036.00
2023-08-07T13:35:54.272Z,100032.41
2023-08-07T13:38:55.764Z,100037.88
2023-08-07T13:41:57.592Z,100038.09
2023-08-07T13:44:59.617Z,100047.13
2023-08-07T13:48:01.515Z,100059.09
2023-08-07T13:51:08.009Z,100070.00
2023-08-07T13:54:09.644Z,100060.94
2023-08-07T13:57:11.204Z,100080.06
2023-08-07T14:00:13.581Z,100077.31
2023-08-07T14:03:15.310Z,100081.09
2023-08-07T14:06:17.101Z,100087.63
2023-08-07T14:09:22.565Z,100086.75
2023-08-07T14:12:24.084Z,100101.25
2023-08-07T14:15:25.878Z,100094.94
2023-08-07T14:18:28.047Z,100103.13
2023-08-07T14:21:29.542Z,100094.94
2023-08-07T14:24:31.134Z,100104.34
2023-08-07T14:27:32.678Z,100098.06
2023-08-07T14:30:34.264Z,100106.25
2023-08-07T14:33:36.516Z,100103.91
2023-08-07T14:36:38.074Z,100111.03
2023-08-07T14:39:39.665Z,100110.22
2023-08-07T14:42:41.255Z,100098.44
2023-08-07T14:45:42.860Z,100111.25
2023-08-07T14:48:44.380Z,100113.16
2023-08-07T14:51:45.944Z,100124.91
2023-08-07T14:54:47.563Z,100121.34
2023-08-07T14:57:49.116Z,100121.34
2023-08-07T15:00:54.394Z,100124.91
2023-08-07T15:03:56.033Z,100120.28
2023-08-07T15:06:57.765Z,100129.53
2023-08-07T15:09:59.320Z,100124.91
2023-08-07T15:13:01.547Z,100122.16
2023-08-07T15:16:03.128Z,100129.53
2023-08-07T15:19:04.761Z,100135.81
2023-08-07T15:22:06.458Z,100130.47
2023-08-07T15:25:10.506Z,100141.31
2023-08-07T15:28:12.142Z,100141.78
2023-08-07T15:31:13.687Z,100152.41
2023-08-07T15:34:15.219Z,100148.34
2023-08-07T15:37:16.770Z,100151.66
2023-08-07T15:40:18.362Z,100166.13
2023-08-07T15:43:19.858Z,100164.44
2023-08-07T15:46:21.433Z,100172.25
2023-08-07T15:49:24.121Z,100178.19
2023-08-07T15:52:26.667Z,100184.94
2023-08-07T15:55:28.715Z,100181.81
2023-08-07T15:58:30.234Z,100165.94
2023-08-07T16:01:31.837Z,100184.66
2023-08-07T16:04:33.398Z,100179.66
2023-08-07T16:07:34.907Z,100183.91
2023-08-07T16:10:36.577Z,100184.56
2023-08-07T16:13:38.102Z,100185.22
2023-08-07T16:16:39.757Z,100189.47
2023-08-07T16:19:42.018Z,100188.06
2023-08-07T16:22:43.653Z,100193.31
2023-08-07T16:25:45.190Z,100200.25
2023-08-07T16:28:46.967Z,100199.25
2023-08-07T16:31:48.642Z,100200.94
2023-08-07T16:34:50.230Z,100210.63
2023-08-07T16:37:51.790Z,100213.16
2023-08-07T16:40:53.358Z,100207.50
2023-08-07T16:43:54.859Z,100211.94
2023-08-07T16:46:56.741Z,100204.38
2023-08-07T16:49:58.890Z,100215.13
2023-08-07T16:53:01.136Z,100219.34
2023-08-07T16:56:02.732Z,100210.31
2023-08-07T16:59:04.292Z,100216.44
2023-08-07T17:02:07.968Z,100216.06
2023-08-07T17:05:09.684Z,100206.81
2023-08-07T17:08:11.167Z,100219.22
2023-08-07T17:11:12.971Z,100215.28
2023-08-07T17:14:14.557Z,100220.72
2023-08-07T17:17:16.087Z,100215.09
2023-08-07T17:20:17.656Z,100218.66
2023-08-07T17:23:19.199Z,100212.38
2023-08-07T17:26:20.694Z,100226.84
2023-08-07T17:29:23.475Z,100219.50
2023-08-07T17:32:25.037Z,100224.97
2023-08-07T17:35:26.622Z,100227.69
2023-08-07T17:38:28.436Z,100217.66
2023-08-07T17:41:30.494Z,100214.03
2023-08-07T17:44:32.018Z,100214.03
2023-08-07T17:47:33.673Z,100207.56
2023-08-07T17:50:35.242Z,100217.66
2023-08-07T17:53:36.860Z,100212.19
2023-08-07T17:56:38.434Z,100211.53
2023-08-07T17:59:39.986Z,100209.81
2023-08-07T18:02:41.744Z,100219.88
2023-08-07T18:05:43.395Z,100224.50
2023-08-07T18:08:44.916Z,100220.94
2023-08-07T18:11:46.419Z,100222.63
2023-08-07T18:14:48.036Z,100220.72
2023-08-07T18:17:49.709Z,100219.06
2023-08-07T18:20:51.272Z,100217.34
2023-08-07T18:23:52.776Z,100220.94
2023-08-07T18:26:54.324Z,100213.78
2023-08-07T18:29:56.068Z,100214.81
2023-08-07T18:32:57.714Z,100216.72
2023-08-07T18:36:01.113Z,100216.91
2023-08-07T18:39:03.163Z,100215.84
2023-08-07T18:42:04.940Z,100218.56
2023-08-07T18:45:06.992Z,100218.78
2023-08-07T18:48:09.166Z,100220.47
2023-08-07T18:51:10.830Z,100224.25
2023-08-07T18:54:12.333Z,100216.06
2023-08-07T18:57:16.485Z,100208.88
2023-08-07T19:00:18.558Z,100219.81
2023-08-07T19:03:21.149Z,100218.97
2023-08-07T19:06:23.198Z,100228.00
2023-08-07T19:09:26.215Z,100242.69
2023-08-07T19:12:27.830Z,100230.94
2023-08-07T19:15:29.449Z,100239.97
2023-08-07T19:18:31.498Z,100235.56
2023-08-07T19:21:33.019Z,100251.94
2023-08-07T19:24:34.812Z,100247.50
2023-08-07T19:27:36.298Z,100249.38
2023-08-07T19:30:39.350Z,100248.31
2023-08-07T19:33:41.946Z,100242.88
2023-08-07T19:36:43.582Z,100246.81
2023-08-07T19:39:45.237Z,100237.78
2023-08-07T19:42:46.765Z,100245.16
2023-08-07T19:45:48.479Z,100249.75
2023-08-07T19:48:50.228Z,100248.06
2023-08-07T19:51:51.787Z,100249.28
2023-08-07T19:54:53.374Z,100251.16
2023-08-07T19:57:54.992Z,100253.72
2023-08-07T20:00:56.735Z,100250.34
2023-08-07T20:03:58.461Z,100248.44
2023-08-07T20:07:03.835Z,100248.66
2023-08-07T20:10:10.665Z,100242.13
2023-08-07T20:13:12.317Z,100245.06
2023-08-07T20:16:13.958Z,100245.91
2023-08-07T20:19:15.628Z,100237.91
2023-08-07T20:22:17.492Z,100238.75
2023-08-07T20:25:19.190Z,100241.47
2023-08-07T20:28:20.776Z,100228.88
2023-08-07T20:31:22.435Z,100233.28
2023-08-07T20:34:24.536Z,100237.06
2023-08-07T20:37:26.827Z,100250.72
2023-08-07T20:40:31.301Z,100254.47
2023-08-07T20:43:33.306Z,100251.72
2023-08-07T20:46:35.066Z,100257.19
2023-08-07T20:49:37.153Z,100257.19
2023-08-07T20:52:39.109Z,100257.19
2023-08-07T20:55:40.650Z,100263.53
2023-08-07T20:58:42.337Z,100268.97
2023-08-07T21:01:47.908Z,100262.66
2023-08-07T21:04:49.631Z,100270.66
2023-08-07T21:07:51.322Z,100271.50
2023-08-07T21:10:55.808Z,100264.38
2023-08-07T21:13:57.846Z,100265.19
2023-08-07T21:16:59.648Z,100263.53
2023-08-07T21:20:01.406Z,100270.66
2023-08-07T21:23:03.484Z,100267.94
2023-08-07T21:26:05.272Z,100269.81
2023-08-07T21:29:06.850Z,100266.25
2023-08-07T21:32:08.693Z,100267.94
2023-08-07T21:35:13.900Z,100272.56
2023-08-07T21:38:16.725Z,100260.78
2023-08-07T21:41:18.978Z,100259.91
2023-08-07T21:44:20.673Z,100254.47
2023-08-07T21:47:22.229Z,100251.72
2023-08-07T21:50:23.821Z,100256.19
2023-08-07T21:53:25.376Z,100254.47
2023-08-07T21:56:26.908Z,100255.34
2023-08-07T21:59:29.246Z,100267.28
2023-08-07T22:02:30.963Z,100262.66
2023-08-07T22:05:32.609Z,100250.91
2023-08-07T22:08:34.153Z,100257.19
2023-08-07T22:11:35.665Z,100250.06
2023-08-07T22:14:37.159Z,100258.06
2023-08-07T22:17:38.888Z,100258.06
2023-08-07T22:20:40.600Z,100253.63
2023-08-07T22:23:42.196Z,100249.00
2023-08-07T22:26:43.761Z,100246.28
2023-08-07T22:29:46.029Z,100246.28
2023-08-07T22:32:48.547Z,100248.16
2023-08-07T22:35:50.298Z,100246.28
2023-08-07T22:38:51.859Z,100240.81
2023-08-07T22:41:53.528Z,100232.63
2023-08-07T22:44:55.227Z,100233.69
2023-08-07T22:48:03.381Z,100230.94
2023-08-07T22:51:06.060Z,100231.13
2023-08-07T22:54:07.570Z,100231.13
2023-08-07T22:57:09.166Z,100228.59
2023-08-07T23:00:11.404Z,100224.00
2023-08-07T23:03:13.135Z,100223.16
2023-08-07T23:06:14.796Z,100217.88
2023-08-07T23:09:16.382Z,100213.47
2023-08-07T23:12:18.216Z,100211.56
2023-08-07T23:15:20.537Z,100213.63
2023-08-07T23:18:22.122Z,100208.38
2023-08-07T23:21:23.839Z,100199.53
2023-08-07T23:24:25.417Z,100195.97
2023-08-07T23:27:27.041Z,100195.97
2023-08-07T23:30:29.974Z,100194.91
2023-08-07T23:33:31.715Z,100177.06
2023-08-07T23:36:33.984Z,100188.81
2023-08-07T23:39:35.572Z,100189.00
2023-08-07T23:42:37.121Z,100190.88
2023-08-07T23:45:38.675Z,100183.72
2023-08-07T23:48:40.265Z,100187.50
2023-08-07T23:51:42.311Z,100181.00
2023-08-07T23:54:43.901Z,100174.72
2023-08-07T23:57:45.478Z,100179.31
